默认 日期 大小 文件数 浏览量 最新下载 xml
dissent磁力链接相关资源由用户搜索指令自动获取,结果来源于网络,本站不存储任何资料,亦不承担任何责任,请于24小时内删除,搜索到111个磁力,用时0ms。
    ... xvid.avi": 183601152, "dissent-people.and.power.hot.chocolate ... .xvid.avi": 184045568, "dissent-people.and.power.broken.covenant ... .xvid.avi": 183668736, "dissent-people.and.power.desperate.households ... .xvid.avi": 183721984, "dissent-people.and.power.critical.mass ...
创建时间: 2019-08-25 04:20:30 大小:2.91 GB 文件数量:35 热度:5 最近下载:2022-11-12 12:57:13
    {"[2015.09.01]公共電視-紀錄觀點:未夠秤(這集不要放大陸)[C3B479FF].mkv": 343690188}
创建时间: 2019-10-01 03:32:47 大小:327.77 MB 文件数量:1 热度:83 最近下载:2025-09-26 10:49:01
    ... No More Forever": {"Cover": {"Kinetic Dissent - I Will Fight No More ...
创建时间: 2019-10-11 01:39:33 大小:70.67 MB 文件数量:10 热度:6 最近下载:2025-03-06 02:01:51
    ... .xvid.r00": 15000000, "dissent-listening.post.20100108.pdtv.xvid ... .r01": 15000000, "dissent-listening.post.20100108.pdtv.xvid ... .r02": 15000000, "dissent-listening.post.20100108.pdtv.xvid ... .r03": 15000000, "dissent-listening.post.20100108.pdtv.xvid ...
创建时间: 2019-12-11 02:21:05 大小:177.3 MB 文件数量:16 热度:5 最近下载:2025-05-14 20:36:03
    {"10-bad_religion-avalon.mp3": 5927745, "11-bad_religion-cyanide.mp3": 6707566, "02-bad_religion-only_rain.mp3": 4547599, "13-bad_religion-ad_hominem.mp3": 6131096, "04-bad_religion-wont_somebody.mp3": 4486416, "07-bad_religion-wrong_way_kids.mp3": 4937278 ...
创建时间: 2019-12-26 22:07:59 大小:70.1 MB 文件数量:15 热度:5 最近下载:2025-04-20 11:26:02
    ... Stitches.mp3": 8777576, "bad religion_the dissent of man.jpg": 429572, "01 ... .mp3": 3909405, "Bad Religion - The Dissent Of Man.m3u": 377}
创建时间: 2020-01-19 00:36:04 大小:105.28 MB 文件数量:17 热度:5 最近下载:2025-03-10 11:58:01
    {"cs-manufac.r00": 15000000, "cs-manufac.r01": 15000000, "cs-manufac.r02": 15000000, "cs-manufac.r03": 15000000, "cs-manufac.r04": 15000000, "cs-manufac.r05": 15000000, "cs-manufac.r06": 15000000, "cs-manufac.r07": 15000000, "cs-manufac.r08": 15000000, "cs ...
创建时间: 2020-01-22 02:19:35 大小:699.34 MB 文件数量:56 热度:3 最近下载:2024-09-19 20:47:01
    {"audiobook-sample.mp3": 2413549, "free audiobook version.txt": 366, "Carolina.De.Robertis.-.Radical.Hope.2017.RETAiL.ePUB.eBOOK.epub": 912055}
创建时间: 2020-02-08 02:40:51 大小:3.17 MB 文件数量:3 热度:3 最近下载:2022-04-17 05:48:49
    {"Read Me.txt": 199, "31tCAC4Cf8L.jpg": 12366, "Angles of Dissent R.A.Christ.pdf": 2225231, "[TGx]Downloaded from torrentgalaxy.to .txt": 585}
创建时间: 2020-02-18 09:06:42 大小:2.13 MB 文件数量:4 热度:5 最近下载:2025-10-17 22:47:01
    {"19 Simon and Garfunkel - Anji.flac": 14781585, "05 Simon and Garfunkel - Overs.flac": 13940490, "13 Simon and Garfunkel - Cloudy.flac": 31735168, "07 Simon and Garfunkel - America.flac": 26366633, "04 Simon and Garfunkel - Fakin' It.flac": 18967856, "10 ...
创建时间: 2020-02-21 13:47:47 大小:405.71 MB 文件数量:24 热度:5 最近下载:2024-12-23 20:28:02
    ... fire.mp3": 8415527, "01-absolute dissent.mp3": 9036823, "05-european super ...
创建时间: 2020-02-28 09:15:21 大小:88.08 MB 文件数量:13 热度:3 最近下载:2023-12-26 06:04:03
    ... , "06 Secret.mp3": 5470691, "04 Dissent.mp3": 6266963, "03 Paper dolls ...
创建时间: 2020-03-02 20:06:31 大小:66.15 MB 文件数量:15 热度:3 最近下载:2023-12-26 14:05:05
    {"Read Me.txt": 199, "31tCAC4Cf8L.jpg": 12366, "Angles of Dissent R.A.Christ.pdf": 2225231, "[TGx]Downloaded from torrentgalaxy.to .txt": 585, "Angles.of.Dissent.By.R.A.Christ.AmazonKindle.Book.PDF.Rdgeno.torrent": 3862}
创建时间: 2020-03-07 23:56:03 大小:2.14 MB 文件数量:5 热度:5 最近下载:2025-10-17 19:14:02
    ... .to.Monsanto.2008.DVDRip.XviD-DiSSENT.avi": 732303360, "The.World.According ... .to.Monsanto.2008.DVDRip.XviD-DiSSENT.EN.srt": 157630, "The. ... .to.Monsanto.2008.DVDRip.XviD-DiSSENT.ES.srt": 144474, "The. ... .to.Monsanto.2008.DVDRip.XviD-DiSSENT.IT.srt": 139063, "The. ...
创建时间: 2020-03-14 00:06:38 大小:698.93 MB 文件数量:5 热度:3 最近下载:2023-12-28 04:46:02
    ... Fire.flac": 45903722, "01-Absolute Dissent.flac": 50911636, "05-European Super ...
创建时间: 2020-04-14 09:16:36 大小:463.2 MB 文件数量:13 热度:2 最近下载:2023-12-30 20:33:05
    ... , "08. Blister.mp3": 10112811, "10. Dissent.mp3": 10641530, "11. Mirrors.mp3 ...
创建时间: 2020-04-24 03:49:51 大小:127.75 MB 文件数量:12 热度:3 最近下载:2024-01-01 01:46:04
    ... , "08 - Blister.flac": 31130659, "10 - Dissent.flac": 33479066, "11 - Mirrors.flac ...
创建时间: 2020-04-26 04:30:06 大小:375.84 MB 文件数量:12 热度:3 最近下载:2024-01-01 05:43:01
    ... www.torrentday.com.txt": 402, "dissent-empire.war.on.terror.through ... pdtv.xvid.r00": 15000000, "dissent-empire.war.on.terror.through ... pdtv.xvid.r01": 15000000, "dissent-empire.war.on.terror.through ... pdtv.xvid.r02": 15000000, "dissent-empire.war.on.terror.through ...
创建时间: 2020-05-01 00:16:25 大小:353.05 MB 文件数量:29 热度:4 最近下载:2025-01-25 04:46:02
    {"[Rita Copeland]Pedagog(pdf){Zzzzz}.pdf": 1157623}
创建时间: 2020-05-01 06:45:12 大小:1.1 MB 文件数量:1 热度:8 最近下载:2025-10-06 18:54:01
    {"MMXX": {"1000mods - Youth of Dissent.jpg": 82767, "1000mods - Youth of Dissent.flac": 392468877, "1000mods - Youth of Dissent.flac.cue": 2090}, "1000.jpg": 616255}
创建时间: 2020-05-09 13:42:14 大小:374.96 MB 文件数量:4 热度:3 最近下载:2022-04-08 06:14:33